Time;durP1;ratioP1;P1;durP2;ratioP2;P2;SDS_P1;SDS_P2;PMS_P1;PMS_P2;Temp;Humidity;BMP_temperature;BMP_pressure;BME280_temperature;BME280_humidity;BME280_pressure;Samples;Min_cycle;Max_cycle;Signal;HPM_P1;HPM_P2
2023/06/10 00:00:27;;;;;;;6.07;4.30;;;;;;;20.08;100.00;100977.00;2073226;28;20248;-73
2023/06/10 00:01:28;;;;;;;5.87;4.17;;;;;;;20.09;100.00;100972.91;2073333;28;20213;-74
2023/06/10 00:02:28;;;;;;;10.03;4.40;;;;;;;20.06;100.00;100959.81;2073348;28;20169;-74
2023/06/10 00:03:29;;;;;;;6.20;4.20;;;;;;;20.11;100.00;100971.16;2073205;28;20197;-74
2023/06/10 00:04:30;;;;;;;7.47;4.60;;;;;;;20.02;100.00;100951.56;2073644;28;20166;-75
2023/06/10 00:05:31;;;;;;;6.57;4.90;;;;;;;20.00;100.00;100948.47;2073076;28;20201;-75
2023/06/10 00:06:40;;;;;;;6.03;4.63;;;;;;;20.05;100.00;100953.41;2073065;28;20539;-74
2023/06/10 00:07:41;;;;;;;8.00;4.07;;;;;;;20.17;100.00;100972.00;2072579;28;20957;-74
2023/06/10 00:08:42;;;;;;;7.90;4.50;;;;;;;20.04;100.00;100943.41;2073381;28;20527;-73
2023/06/10 00:09:42;;;;;;;9.03;5.40;;;;;;;20.22;100.00;100964.94;2073673;28;20178;-74
2023/06/10 00:10:43;;;;;;;7.00;5.10;;;;;;;20.24;100.00;100966.00;2072783;28;20185;-75
2023/06/10 00:11:43;;;;;;;7.23;4.67;;;;;;;20.26;100.00;100966.25;2072252;28;20215;-74
2023/06/10 00:12:43;;;;;;;5.77;4.40;;;;;;;19.93;100.00;100926.38;2065709;28;20175;-74
2023/06/10 00:13:44;;;;;;;6.53;4.63;;;;;;;20.28;100.00;100965.78;2080525;28;20189;-74
2023/06/10 00:14:45;;;;;;;6.43;4.57;;;;;;;20.24;100.00;100971.63;2081156;28;20272;-73
2023/06/10 00:15:45;;;;;;;7.27;4.73;;;;;;;20.25;100.00;100969.56;2073471;28;20178;-73
2023/06/10 00:16:45;;;;;;;6.00;4.53;;;;;;;20.27;100.00;100967.81;2073306;28;20204;-74
2023/06/10 00:17:46;;;;;;;9.77;4.30;;;;;;;20.07;100.00;100953.69;2073642;28;20541;-73
2023/06/10 00:18:47;;;;;;;12.47;5.00;;;;;;;19.77;100.00;100923.31;2073149;28;20240;-74
2023/06/10 00:19:47;;;;;;;8.03;4.80;;;;;;;20.13;100.00;100977.09;2073498;28;20190;-74
2023/06/10 00:20:52;;;;;;;10.10;5.10;;;;;;;20.14;100.00;100972.22;2073546;28;20205;-73
2023/06/10 00:21:53;;;;;;;7.93;5.03;;;;;;;20.09;100.00;100978.53;2073700;28;20626;-73
2023/06/10 00:22:53;;;;;;;6.87;4.83;;;;;;;20.12;100.00;100975.50;2073374;28;20782;-74
2023/06/10 00:23:55;;;;;;;10.53;4.90;;;;;;;20.13;100.00;100981.94;2073643;28;20646;-73
2023/06/10 00:24:56;;;;;;;10.00;4.93;;;;;;;20.09;100.00;100986.97;2073530;28;20255;-73
2023/06/10 00:26:00;;;;;;;7.23;5.10;;;;;;;20.00;100.00;100968.16;2073352;28;20985;-74
2023/06/10 00:27:00;;;;;;;9.83;4.87;;;;;;;19.90;100.00;100957.53;2073618;28;20417;-74
2023/06/10 00:28:01;;;;;;;11.03;4.73;;;;;;;20.07;100.00;100978.22;2072977;28;20419;-73
2023/06/10 00:29:01;;;;;;;8.33;4.67;;;;;;;20.04;100.00;100976.38;2080327;28;20212;-73
2023/06/10 00:30:06;;;;;;;9.37;5.10;;;;;;;20.06;100.00;100985.88;2076177;28;20742;-74
2023/06/10 00:31:07;;;;;;;6.97;4.57;;;;;;;20.04;100.00;100980.00;2073212;28;20206;-74
2023/06/10 00:32:08;;;;;;;8.17;4.93;;;;;;;20.07;100.00;100984.66;2073461;28;20429;-73
2023/06/10 00:33:08;;;;;;;6.47;4.63;;;;;;;19.90;100.00;100949.84;2073409;28;20626;-73
2023/06/10 00:34:09;;;;;;;6.60;4.47;;;;;;;20.03;100.00;100984.06;2073259;28;20185;-73
2023/06/10 00:35:10;;;;;;;7.17;4.70;;;;;;;20.00;100.00;100981.47;2073633;28;20181;-73
2023/06/10 00:36:10;;;;;;;5.37;4.53;;;;;;;19.97;100.00;100982.44;2072949;28;20188;-73
2023/06/10 00:37:10;;;;;;;5.10;4.30;;;;;;;19.95;100.00;100976.53;2073574;28;20196;-73
2023/06/10 00:38:14;;;;;;;10.43;4.77;;;;;;;19.94;100.00;100978.56;2072998;28;20236;-74
2023/06/10 00:39:15;;;;;;;7.20;4.63;;;;;;;19.90;100.00;100980.03;2073261;28;20228;-73
2023/06/10 00:40:15;;;;;;;7.43;4.13;;;;;;;19.85;100.00;100969.47;2073418;28;20474;-73
2023/06/10 00:41:16;;;;;;;9.13;4.90;;;;;;;19.90;100.00;100974.41;2073074;28;20188;-73
2023/06/10 00:42:16;;;;;;;6.90;4.70;;;;;;;19.89;100.00;100978.44;2073663;28;20526;-74
2023/06/10 00:43:16;;;;;;;8.10;4.80;;;;;;;19.91;100.00;100976.69;2072734;28;20217;-75
2023/06/10 00:44:17;;;;;;;7.90;4.77;;;;;;;19.94;100.00;100974.94;2073090;28;20178;-74
2023/06/10 00:45:17;;;;;;;6.37;4.50;;;;;;;19.94;100.00;100975.75;2073239;28;20271;-75
2023/06/10 00:46:18;;;;;;;7.33;4.90;;;;;;;19.94;100.00;100974.94;2072612;28;20544;-73
2023/06/10 00:47:18;;;;;;;7.83;5.00;;;;;;;19.96;100.00;100986.50;2073272;28;20678;-73
2023/06/10 00:48:20;;;;;;;5.33;4.40;;;;;;;19.94;100.00;100975.75;2073413;28;20557;-74
2023/06/10 00:49:20;;;;;;;6.30;4.60;;;;;;;19.90;100.00;100968.78;2073025;28;20180;-73
2023/06/10 00:50:21;;;;;;;7.60;4.97;;;;;;;19.96;100.00;100973.19;2073292;28;20472;-75
2023/06/10 00:51:22;;;;;;;6.07;4.77;;;;;;;19.12;100.00;100847.84;2073005;28;20239;-74
2023/06/10 00:52:27;;;;;;;6.43;4.87;;;;;;;20.01;100.00;100975.31;2072940;28;20192;-74
2023/06/10 00:53:28;;;;;;;8.07;5.03;;;;;;;20.01;100.00;100980.19;2071915;28;20442;-73
2023/06/10 00:54:28;;;;;;;7.97;4.77;;;;;;;20.03;100.00;100983.28;2070810;28;20996;-74
2023/06/10 00:55:29;;;;;;;7.17;4.93;;;;;;;19.98;100.00;100975.53;2065281;28;20795;-73
2023/06/10 00:56:30;;;;;;;7.57;4.50;;;;;;;19.97;100.00;100977.59;2072985;28;20188;-74
2023/06/10 00:57:30;;;;;;;7.90;4.63;;;;;;;20.00;100.00;100987.09;2072942;28;20181;-73
2023/06/10 00:58:31;;;;;;;8.07;4.60;;;;;;;19.99;100.00;100977.88;2072359;28;20223;-74
2023/06/10 00:59:32;;;;;;;8.40;4.50;;;;;;;20.02;100.00;100987.38;2068069;28;20197;-75
2023/06/10 01:00:32;;;;;;;11.10;4.77;;;;;;;20.01;100.00;100989.38;2065140;28;20553;-73
2023/06/10 01:01:33;;;;;;;10.00;5.20;;;;;;;19.99;100.00;100975.03;2066846;28;20178;-74
2023/06/10 01:02:34;;;;;;;8.97;4.83;;;;;;;19.92;100.00;100972.66;2073053;28;20566;-73
2023/06/10 01:03:36;;;;;;;7.63;5.10;;;;;;;20.00;100.00;100985.03;2073059;28;20464;-73
2023/06/10 01:04:37;;;;;;;9.47;4.80;;;;;;;19.98;100.00;100981.16;2065214;28;20541;-74
2023/06/10 01:05:38;;;;;;;6.50;4.80;;;;;;;20.01;100.00;100974.56;2071482;28;20491;-74
2023/06/10 01:07:05;;;;;;;9.50;4.97;;;;;;;19.98;100.00;100975.53;2073219;28;20177;-74
2023/06/10 01:08:38;;;;;;;7.23;4.67;;;;;;;19.98;100.00;100967.09;2069688;28;20455;-74
2023/06/10 01:10:04;;;;;;;6.73;5.13;;;;;;;19.94;100.00;100963.69;2066553;28;20390;-75
2023/06/10 01:11:10;;;;;;;8.80;4.93;;;;;;;19.93;100.00;100962.16;2072722;28;20436;-73
2023/06/10 01:12:28;;;;;;;8.57;5.20;;;;;;;19.45;100.00;100884.97;2072886;28;20448;-75
2023/06/10 01:13:29;;;;;;;7.40;5.07;;;;;;;19.90;100.00;100968.78;2073142;28;20921;-74
2023/06/10 01:14:31;;;;;;;6.07;4.70;;;;;;;19.88;100.00;100965.66;2072966;28;20448;-74
2023/06/10 01:15:32;;;;;;;7.00;5.10;;;;;;;19.89;100.00;100972.81;2072801;28;20431;-74
2023/06/10 01:16:35;;;;;;;5.80;5.20;;;;;;;19.91;100.00;100978.75;2072770;28;20498;-73
2023/06/10 01:17:54;;;;;;;7.47;4.90;;;;;;;19.88;100.00;100974.88;2073268;28;20409;-73
2023/06/10 01:18:55;;;;;;;7.13;4.80;;;;;;;19.87;100.00;100976.16;2072788;28;20468;-73
2023/06/10 01:19:56;;;;;;;8.13;5.00;;;;;;;19.89;100.00;100975.63;2073175;28;20511;-74
2023/06/10 01:20:57;;;;;;;6.63;5.13;;;;;;;19.85;100.00;100975.84;2072877;28;20182;-73
2023/06/10 01:22:00;;;;;;;7.77;5.47;;;;;;;19.80;100.00;100973.72;2073079;28;20527;-74
2023/06/10 01:23:02;;;;;;;9.77;5.50;;;;;;;19.85;100.00;100972.28;2073053;28;20561;-74
2023/06/10 01:24:03;;;;;;;8.47;5.10;;;;;;;19.86;100.00;100977.38;2072987;28;20453;-73
2023/06/10 01:25:05;;;;;;;7.60;5.27;;;;;;;19.86;100.00;100979.44;2073018;28;20420;-73
2023/06/10 01:26:10;;;;;;;6.83;5.10;;;;;;;19.89;100.00;100970.00;2072419;28;20169;-74
2023/06/10 01:27:15;;;;;;;6.67;5.07;;;;;;;19.92;100.00;100977.50;2072377;28;20420;-74
2023/06/10 01:28:30;;;;;;;7.10;4.90;;;;;;;19.82;100.00;100959.19;2073100;28;20409;-74
2023/06/10 01:29:38;;;;;;;6.67;4.90;;;;;;;19.94;100.00;100981.38;2073080;28;20416;-74
2023/06/10 01:31:07;;;;;;;7.40;4.93;;;;;;;19.95;100.00;100976.53;2072508;28;20397;-74
2023/06/10 01:32:21;;;;;;;7.10;5.13;;;;;;;19.93;100.00;100965.75;2070528;28;20413;-74
2023/06/10 01:33:28;;;;;;;9.80;5.03;;;;;;;19.96;100.00;100980.88;2066208;28;20408;-74
2023/06/10 01:34:32;;;;;;;8.23;5.17;;;;;;;19.95;100.00;100977.28;2072794;28;20409;-74
2023/06/10 01:35:33;;;;;;;6.90;4.60;;;;;;;19.95;100.00;100973.72;2073075;28;20471;-74
2023/06/10 01:36:35;;;;;;;10.43;4.87;;;;;;;19.95;100.00;100973.72;2072983;28;20834;-74
2023/06/10 01:37:38;;;;;;;15.63;5.73;;;;;;;19.42;100.00;100897.19;2072529;28;20417;-74
2023/06/10 01:38:50;;;;;;;7.87;4.47;;;;;;;19.96;100.00;100983.69;2072549;28;20425;-73
2023/06/10 01:39:51;;;;;;;7.63;4.80;;;;;;;19.97;100.00;100969.16;2072610;28;20459;-74
2023/06/10 01:40:53;;;;;;;6.77;5.00;;;;;;;19.98;100.00;100967.09;2072660;28;20427;-74
2023/06/10 01:41:54;;;;;;;5.90;4.73;;;;;;;19.94;100.00;100964.47;2072853;28;20193;-73
2023/06/10 01:42:54;;;;;;;7.17;5.03;;;;;;;19.94;100.00;100966.50;2073977;28;20453;-74
2023/06/10 01:43:55;;;;;;;7.90;5.00;;;;;;;19.90;100.00;100966.72;2081236;28;20428;-73
2023/06/10 01:44:55;;;;;;;6.83;5.10;;;;;;;19.90;100.00;100965.97;2073544;28;20677;-74
2023/06/10 01:45:55;;;;;;;6.23;4.63;;;;;;;19.89;100.00;100965.19;2080324;28;20708;-74
2023/06/10 01:46:56;;;;;;;9.27;5.00;;;;;;;19.88;100.00;100963.63;2080200;28;20614;-74
2023/06/10 01:47:56;;;;;;;9.73;5.20;;;;;;;19.88;100.00;100963.63;2073013;28;20684;-75
2023/06/10 01:48:57;;;;;;;8.70;5.37;;;;;;;19.85;100.00;100963.84;2073158;28;20192;-73
2023/06/10 01:49:57;;;;;;;7.90;4.80;;;;;;;19.84;100.00;100967.88;2073441;28;20185;-73
2023/06/10 01:50:58;;;;;;;8.07;4.93;;;;;;;19.86;100.00;100971.75;2072862;28;20181;-73
2023/06/10 01:51:58;;;;;;;7.43;4.87;;;;;;;19.86;100.00;100971.00;2072689;28;20602;-74
2023/06/10 01:52:59;;;;;;;8.43;4.57;;;;;;;19.84;100.00;100963.06;2073074;28;20634;-73
2023/06/10 01:54:00;;;;;;;7.00;5.00;;;;;;;19.84;100.00;100963.06;2072483;28;20197;-73
2023/06/10 01:55:00;;;;;;;7.40;4.50;;;;;;;19.85;100.00;100975.84;2072009;28;20451;-74
2023/06/10 01:56:01;;;;;;;10.60;5.50;;;;;;;19.86;100.00;100968.19;2072201;28;20236;-73
2023/06/10 01:57:01;;;;;;;13.10;4.90;;;;;;;19.83;100.00;100975.56;2072833;28;20182;-73
2023/06/10 01:58:02;;;;;;;9.60;5.33;;;;;;;19.85;100.00;100961.78;2073405;28;20189;-73
2023/06/10 01:59:02;;;;;;;10.00;5.00;;;;;;;19.86;100.00;100954.13;2072563;28;20201;-73
2023/06/10 02:00:03;;;;;;;9.93;5.00;;;;;;;19.84;100.00;100959.44;2072785;28;20643;-74
2023/06/10 02:01:04;;;;;;;7.83;4.83;;;;;;;19.84;100.00;100948.19;2072598;28;20208;-73
2023/06/10 02:02:05;;;;;;;8.30;5.30;;;;;;;19.82;100.00;100951.53;2072995;28;20173;-74
2023/06/10 02:03:05;;;;;;;8.20;4.77;;;;;;;19.74;100.00;100943.94;2069483;28;20237;-73
2023/06/10 02:04:06;;;;;;;5.47;4.90;;;;;;;19.80;100.00;100956.84;2066191;28;20186;-73
2023/06/10 02:05:06;;;;;;;6.67;4.90;;;;;;;19.79;100.00;100951.69;2072571;28;20712;-73
2023/06/10 02:06:07;;;;;;;12.93;5.20;;;;;;;19.78;100.00;100956.56;2073239;28;20631;-73
2023/06/10 02:07:07;;;;;;;8.10;4.90;;;;;;;19.78;100.00;100962.19;2064595;28;20198;-73
2023/06/10 02:08:08;;;;;;;5.50;4.53;;;;;;;19.78;100.00;100967.03;2070882;28;20185;-73
2023/06/10 02:09:08;;;;;;;7.70;4.77;;;;;;;19.77;100.00;100957.84;2072228;28;20682;-73
2023/06/10 02:10:09;;;;;;;9.53;4.90;;;;;;;19.78;100.00;100965.00;2072240;28;20193;-73
2023/06/10 02:11:09;;;;;;;9.47;5.07;;;;;;;19.76;100.00;100964.69;2072896;28;20177;-73
2023/06/10 02:12:10;;;;;;;9.80;5.23;;;;;;;19.78;100.00;100959.38;2072734;28;20182;-73
2023/06/10 02:13:10;;;;;;;9.87;5.20;;;;;;;19.73;100.00;100954.44;2072024;28;20197;-74
2023/06/10 02:14:11;;;;;;;7.80;4.87;;;;;;;19.79;100.00;100968.56;2073204;28;20679;-73
2023/06/10 02:15:11;;;;;;;12.30;5.20;;;;;;;19.80;100.00;100962.47;2065139;28;20240;-74
2023/06/10 02:16:12;;;;;;;9.13;5.10;;;;;;;19.81;100.00;100971.69;2069815;28;20271;-74
2023/06/10 02:17:14;;;;;;;8.83;5.00;;;;;;;19.80;100.00;100965.28;2071997;28;20659;-74
2023/06/10 02:18:15;;;;;;;5.23;4.63;;;;;;;19.62;100.00;100948.66;2072776;28;20428;-74
2023/06/10 02:19:15;;;;;;;7.90;4.40;;;;;;;19.80;100.00;100970.16;2072023;28;21028;-74
2023/06/10 02:20:15;;;;;;;10.30;4.77;;;;;;;19.76;100.00;100975.94;2071458;28;20670;-75
2023/06/10 02:21:16;;;;;;;10.87;5.37;;;;;;;19.67;100.00;100969.66;2071656;28;20182;-75
2023/06/10 02:22:16;;;;;;;8.93;5.10;;;;;;;19.75;100.00;100980.03;2072007;28;20205;-75
2023/06/10 02:23:17;;;;;;;10.27;4.73;;;;;;;19.74;100.00;100975.66;2072293;28;20292;-74
2023/06/10 02:24:17;;;;;;;9.57;5.50;;;;;;;19.69;100.00;100976.34;2072294;28;20186;-75
2023/06/10 02:25:18;;;;;;;10.47;5.70;;;;;;;19.71;100.00;100979.44;2072121;28;20186;-74
2023/06/10 02:26:20;;;;;;;7.13;5.20;;;;;;;19.65;100.00;100984.19;2071254;28;20184;-74
2023/06/10 02:27:21;;;;;;;8.40;5.00;;;;;;;19.61;100.00;100986.47;2071617;28;20182;-75
2023/06/10 02:28:21;;;;;;;9.53;5.90;;;;;;;19.59;100.00;100983.34;2072571;28;20459;-75
2023/06/10 02:29:21;;;;;;;11.40;5.27;;;;;;;19.53;100.00;100990.91;2071841;28;20254;-76
2023/06/10 02:30:22;;;;;;;13.43;5.43;;;;;;;19.51;100.00;100987.03;2071986;28;20204;-75
2023/06/10 02:31:24;;;;;;;8.50;5.50;;;;;;;19.54;100.00;100988.88;2071995;28;20292;-75
2023/06/10 02:32:25;;;;;;;10.20;5.73;;;;;;;19.53;100.00;100995.75;2072228;28;20612;-75
2023/06/10 02:33:27;;;;;;;7.83;5.20;;;;;;;19.53;100.00;100992.94;2072182;28;20436;-75
2023/06/10 02:34:27;;;;;;;12.30;5.30;;;;;;;19.54;100.00;100994.50;2072038;28;20420;-75
2023/06/10 02:35:27;;;;;;;9.07;5.33;;;;;;;19.53;100.00;100993.72;2072124;28;20517;-74
2023/06/10 02:36:28;;;;;;;7.67;5.57;;;;;;;19.54;100.00;100991.69;2072045;28;20177;-74
2023/06/10 02:37:28;;;;;;;13.70;5.27;;;;;;;19.52;100.00;100989.38;2080845;28;20188;-74
2023/06/10 02:38:29;;;;;;;15.87;5.90;;;;;;;19.54;100.00;100986.06;2073397;28;20192;-74
2023/06/10 02:39:29;;;;;;;9.47;4.73;;;;;;;19.52;100.00;100992.19;2072334;28;20203;-74
2023/06/10 02:40:29;;;;;;;8.57;5.60;;;;;;;19.51;100.00;100985.00;2072321;28;20288;-74
2023/06/10 02:41:30;;;;;;;9.67;5.20;;;;;;;19.54;100.00;100994.50;2072221;28;20350;-74
2023/06/10 02:42:30;;;;;;;10.13;4.97;;;;;;;19.51;100.00;100984.22;2072470;28;20181;-74
2023/06/10 02:43:31;;;;;;;8.27;5.00;;;;;;;19.53;100.00;100993.72;2070843;28;20215;-74
2023/06/10 02:44:31;;;;;;;10.97;5.23;;;;;;;19.52;100.00;100985.75;2072017;28;20657;-75
2023/06/10 02:45:31;;;;;;;6.53;4.97;;;;;;;19.53;100.00;100990.91;2072609;28;20214;-74
2023/06/10 02:46:32;;;;;;;11.47;5.30;;;;;;;19.53;100.00;100985.28;2072496;28;20252;-74
2023/06/10 02:47:32;;;;;;;10.90;5.07;;;;;;;19.49;100.00;100976.25;2072311;28;20220;-74
2023/06/10 02:48:40;;;;;;;9.43;5.17;;;;;;;19.51;100.00;100972.97;2072540;28;20274;-74
2023/06/10 02:49:40;;;;;;;8.63;5.17;;;;;;;19.47;100.00;100983.63;2072510;28;20218;-74
2023/06/10 02:50:41;;;;;;;10.20;5.13;;;;;;;19.44;100.00;100982.56;2072304;28;20452;-73
2023/06/10 02:51:41;;;;;;;12.23;5.37;;;;;;;19.40;100.00;100981.97;2072806;28;20192;-74
2023/06/10 02:52:42;;;;;;;8.60;5.53;;;;;;;18.61;100.00;100870.69;2074088;28;20178;-73
2023/06/10 02:53:42;;;;;;;8.77;4.87;;;;;;;19.39;100.00;100983.25;2074086;28;20188;-74
2023/06/10 02:54:43;;;;;;;8.47;4.97;;;;;;;19.40;100.00;100987.59;2073810;28;20560;-73
2023/06/10 02:55:44;;;;;;;8.73;5.03;;;;;;;19.44;100.00;100981.81;2073187;28;20196;-74
2023/06/10 02:56:44;;;;;;;10.40;4.50;;;;;;;19.45;100.00;100994.59;2073700;28;20232;-73
2023/06/10 02:57:44;;;;;;;8.23;5.07;;;;;;;19.45;100.00;100992.53;2074107;28;20180;-74
2023/06/10 02:58:45;;;;;;;10.03;4.80;;;;;;;18.76;100.00;100873.50;2073499;28;20269;-73
2023/06/10 02:59:46;;;;;;;12.00;4.80;;;;;;;19.46;100.00;100985.69;2074106;28;20210;-73
2023/06/10 03:00:47;;;;;;;11.80;5.10;;;;;;;19.47;100.00;100980.81;2074240;28;20187;-74
2023/06/10 03:01:47;;;;;;;12.13;5.43;;;;;;;19.48;100.00;100996.41;2073182;28;20439;-73
2023/06/10 03:02:48;;;;;;;12.90;5.50;;;;;;;19.48;100.00;100982.38;2074095;28;20194;-74
2023/06/10 03:03:50;;;;;;;10.57;5.20;;;;;;;19.47;100.00;100981.59;2073825;28;20249;-73
2023/06/10 03:04:50;;;;;;;12.80;5.30;;;;;;;19.49;100.00;100981.13;2072531;28;20818;-73
2023/06/10 03:05:51;;;;;;;9.57;5.10;;;;;;;19.51;100.00;100981.41;2066407;28;20459;-73
2023/06/10 03:06:51;;;;;;;9.60;5.40;;;;;;;19.53;100.00;100982.47;2073382;28;20189;-73
2023/06/10 03:07:52;;;;;;;8.80;5.33;;;;;;;19.56;100.00;100983.53;2074318;28;20215;-73
2023/06/10 03:08:52;;;;;;;6.90;4.80;;;;;;;19.56;100.00;100983.53;2073913;28;20194;-73
2023/06/10 03:09:52;;;;;;;12.83;5.07;;;;;;;19.56;100.00;100984.31;2073716;28;20194;-73
2023/06/10 03:10:53;;;;;;;11.17;5.60;;;;;;;19.59;100.00;100986.16;2071086;28;20198;-74
2023/06/10 03:11:53;;;;;;;11.80;6.23;;;;;;;19.58;100.00;100986.63;2067186;28;20181;-74
2023/06/10 03:12:54;;;;;;;12.83;5.33;;;;;;;19.60;100.00;100986.94;2074243;28;20184;-74
2023/06/10 03:13:55;;;;;;;11.87;5.30;;;;;;;19.59;100.00;100991.00;2073854;28;20429;-74
2023/06/10 03:14:55;;;;;;;11.73;5.33;;;;;;;19.61;100.00;100989.28;2073361;28;20575;-73
2023/06/10 03:15:56;;;;;;;13.27;5.60;;;;;;;19.60;100.00;100984.13;2074206;28;20473;-73
2023/06/10 03:16:57;;;;;;;9.97;5.70;;;;;;;19.59;100.00;100983.34;2073534;28;20231;-73
2023/06/10 03:17:57;;;;;;;13.47;5.57;;;;;;;19.61;100.00;100988.47;2073544;28;20287;-74
2023/06/10 03:18:57;;;;;;;12.43;5.23;;;;;;;19.64;100.00;100987.50;2073859;28;20303;-73
2023/06/10 03:19:59;;;;;;;12.67;5.50;;;;;;;19.66;100.00;100987.81;2073436;28;20689;-74
2023/06/10 03:21:00;;;;;;;14.23;5.10;;;;;;;18.70;100.00;100836.16;2073847;28;20429;-74
2023/06/10 03:22:09;;;;;;;11.00;5.30;;;;;;;19.66;100.00;100991.38;2074169;28;20332;-73
2023/06/10 03:23:09;;;;;;;15.40;5.30;;;;;;;19.69;100.00;100981.97;2065591;28;20212;-74
2023/06/10 03:24:10;;;;;;;13.13;4.90;;;;;;;19.65;100.00;100987.03;2074030;28;20976;-73
2023/06/10 03:25:13;;;;;;;8.33;4.60;;;;;;;19.73;100.00;100996.63;2073611;28;20206;-74
2023/06/10 03:26:15;;;;;;;13.90;5.03;;;;;;;19.57;100.00;100963.38;2074261;28;20443;-73
2023/06/10 03:27:16;;;;;;;16.43;5.00;;;;;;;19.71;100.00;100998.38;2073102;28;20529;-74
2023/06/10 03:28:16;;;;;;;15.67;4.80;;;;;;;19.72;100.00;100999.91;2073675;28;20451;-73
2023/06/10 03:29:17;;;;;;;8.67;4.63;;;;;;;19.74;100.00;100995.34;2073617;28;20460;-74
2023/06/10 03:30:17;;;;;;;13.20;5.20;;;;;;;19.74;100.00;100992.53;2073254;28;20211;-74
2023/06/10 03:31:18;;;;;;;13.90;4.50;;;;;;;19.73;100.00;100988.19;2074088;28;20181;-74
2023/06/10 03:32:18;;;;;;;16.93;5.03;;;;;;;19.73;100.00;100988.19;2073677;28;20244;-74
2023/06/10 03:33:18;;;;;;;7.43;4.40;;;;;;;19.71;100.00;100989.94;2072944;28;20644;-73
2023/06/10 03:34:19;;;;;;;10.40;4.73;;;;;;;19.69;100.00;100992.44;2073728;28;20641;-73
2023/06/10 03:35:20;;;;;;;11.90;4.37;;;;;;;19.71;100.00;100982.25;2073315;28;20205;-73
2023/06/10 03:36:20;;;;;;;11.17;4.40;;;;;;;19.28;100.00;100914.81;2073776;28;20444;-74
2023/06/10 03:37:21;;;;;;;8.13;4.70;;;;;;;19.72;100.00;100994.28;2073553;28;20267;-74
2023/06/10 03:38:21;;;;;;;9.27;4.23;;;;;;;19.74;100.00;100989.72;2073724;28;20195;-73
2023/06/10 03:39:23;;;;;;;15.60;4.80;;;;;;;19.76;100.00;100994.88;2074226;28;20201;-73
2023/06/10 03:40:23;;;;;;;17.23;4.63;;;;;;;19.76;100.00;100994.88;2072772;28;20186;-73
2023/06/10 03:41:25;;;;;;;11.23;4.87;;;;;;;19.77;100.00;100990.78;2072817;28;20954;-74
2023/06/10 03:42:25;;;;;;;11.57;4.53;;;;;;;19.80;100.00;100989.84;2072813;28;20197;-74
2023/06/10 03:43:27;;;;;;;13.10;4.50;;;;;;;19.78;100.00;100981.88;2073068;28;21000;-73
2023/06/10 03:44:27;;;;;;;11.07;4.50;;;;;;;19.86;100.00;100983.00;2075332;28;20647;-74
2023/06/10 03:45:28;;;;;;;13.07;4.77;;;;;;;19.84;100.00;100987.56;2080076;28;20793;-74
2023/06/10 03:46:28;;;;;;;11.23;4.60;;;;;;;19.78;100.00;100986.72;2072448;28;20680;-75
2023/06/10 03:47:37;;;;;;;15.03;5.00;;;;;;;19.44;100.00;100936.84;2074027;28;20193;-74
2023/06/10 03:48:38;;;;;;;14.77;4.57;;;;;;;19.76;100.00;100978.75;2073425;28;20172;-74
2023/06/10 03:49:40;;;;;;;11.73;4.87;;;;;;;19.83;100.00;100981.19;2073777;28;20454;-73
2023/06/10 03:50:40;;;;;;;9.80;4.37;;;;;;;19.87;100.00;100978.19;2073011;28;20480;-74
2023/06/10 03:51:41;;;;;;;9.40;4.13;;;;;;;19.90;100.00;100974.41;2073112;28;20443;-73
2023/06/10 03:52:41;;;;;;;14.00;4.20;;;;;;;19.94;100.00;100981.38;2074096;28;20178;-74
2023/06/10 03:53:42;;;;;;;11.00;4.30;;;;;;;19.97;100.00;100976.81;2073020;28;20197;-73
2023/06/10 03:54:42;;;;;;;14.37;4.13;;;;;;;20.00;100.00;100973.78;2073960;28;20181;-74
2023/06/10 03:55:43;;;;;;;12.77;4.17;;;;;;;20.05;100.00;100983.59;2073174;28;20213;-74
2023/06/10 03:56:43;;;;;;;11.90;4.60;;;;;;;19.81;100.00;100937.94;2073659;28;20185;-74
2023/06/10 03:57:44;;;;;;;7.47;4.10;;;;;;;20.10;100.00;100983.69;2068316;28;20225;-74
2023/06/10 03:58:45;;;;;;;14.57;4.53;;;;;;;20.10;100.00;100978.06;2070404;28;20659;-73
2023/06/10 03:59:45;;;;;;;10.10;4.20;;;;;;;20.14;100.00;100984.25;2073459;28;20192;-74
2023/06/10 04:00:46;;;;;;;10.73;3.90;;;;;;;20.16;100.00;100992.22;2072728;28;20655;-73
2023/06/10 04:01:47;;;;;;;10.90;3.97;;;;;;;20.25;100.00;100986.44;2073089;28;20670;-73
2023/06/10 04:02:51;;;;;;;11.33;4.23;;;;;;;19.34;100.00;100839.84;2073458;28;20933;-74
2023/06/10 04:03:53;;;;;;;12.53;4.63;;;;;;;20.29;100.00;100981.41;2065537;28;20691;-74
2023/06/10 04:04:54;;;;;;;8.90;4.17;;;;;;;20.29;100.00;100985.00;2073092;28;20452;-74
2023/06/10 04:05:55;;;;;;;8.93;3.87;;;;;;;20.29;100.00;100995.47;2073126;28;20541;-74
2023/06/10 04:06:55;;;;;;;12.93;4.63;;;;;;;20.29;100.00;100987.81;2073064;28;20216;-74
2023/06/10 04:07:56;;;;;;;13.00;4.30;;;;;;;20.33;100.00;100985.56;2073671;28;20190;-73
2023/06/10 04:08:57;;;;;;;10.43;4.60;;;;;;;20.33;100.00;100985.56;2072807;28;20628;-74
2023/06/10 04:09:57;;;;;;;13.40;4.90;;;;;;;20.38;100.00;100984.88;2073844;28;20429;-75
2023/06/10 04:10:58;;;;;;;10.20;4.60;;;;;;;20.42;100.00;100990.28;2072977;28;20177;-73
2023/06/10 04:11:58;;;;;;;12.40;4.30;;;;;;;20.41;100.00;100988.75;2073624;28;20713;-73
2023/06/10 04:12:59;;;;;;;16.53;5.00;;;;;;;20.44;100.00;100987.75;2073336;28;20549;-74
2023/06/10 04:13:59;;;;;;;14.10;4.43;;;;;;;20.49;100.00;100989.84;2072919;28;20288;-73
2023/06/10 04:15:00;;;;;;;13.13;3.90;;;;;;;19.81;100.00;100884.50;2072733;28;20429;-73
2023/06/10 04:16:01;;;;;;;14.07;4.73;;;;;;;20.47;100.00;100989.59;2073689;28;20243;-73
2023/06/10 04:17:02;;;;;;;8.53;4.30;;;;;;;19.89;100.00;100908.13;2072670;28;20182;-73
2023/06/10 04:18:02;;;;;;;7.90;4.13;;;;;;;20.43;100.00;100989.81;2074170;28;20456;-73
2023/06/10 04:19:03;;;;;;;9.80;4.13;;;;;;;20.44;100.00;100988.53;2073210;28;20230;-74
2023/06/10 04:20:06;;;;;;;12.00;4.37;;;;;;;20.45;100.00;100984.44;2073133;28;20292;-73
2023/06/10 04:21:07;;;;;;;8.47;3.87;;;;;;;20.02;100.00;100914.22;2073963;28;20254;-73
2023/06/10 04:22:07;;;;;;;8.27;4.50;;;;;;;20.41;100.00;100985.94;2068956;28;20544;-73
2023/06/10 04:23:07;;;;;;;10.80;4.20;;;;;;;20.43;100.00;100989.00;2065727;28;20222;-73
2023/06/10 04:24:08;;;;;;;11.53;4.37;;;;;;;20.43;100.00;100987.00;2066331;28;20671;-73
2023/06/10 04:25:09;;;;;;;13.73;4.60;;;;;;;20.45;100.00;100987.25;2073360;28;20558;-74
2023/06/10 04:26:12;;;;;;;11.03;4.07;;;;;;;20.48;100.00;100988.31;2073959;28;20669;-73
2023/06/10 04:27:12;;;;;;;14.53;4.93;;;;;;;19.73;100.00;100872.13;2065337;28;20456;-73
2023/06/10 04:28:13;;;;;;;9.23;4.57;;;;;;;20.56;100.00;100992.25;2071581;28;20959;-74
2023/06/10 04:29:13;;;;;;;11.13;4.80;;;;;;;20.63;100.00;101001.06;2072727;28;20280;-73
2023/06/10 04:30:15;;;;;;;7.93;4.17;;;;;;;20.63;100.00;100995.41;2072883;28;20629;-74
2023/06/10 04:31:15;;;;;;;9.13;4.30;;;;;;;20.72;100.00;101002.97;2072130;28;20593;-74
2023/06/10 04:32:16;;;;;;;11.07;4.27;;;;;;;20.77;100.00;101005.09;2071980;28;20491;-74
2023/06/10 04:33:17;;;;;;;12.00;4.53;;;;;;;20.82;100.00;100990.31;2065577;28;20234;-74
2023/06/10 04:34:17;;;;;;;10.37;4.20;;;;;;;20.23;100.00;100907.38;2073596;28;20178;-73
2023/06/10 04:35:18;;;;;;;16.73;4.90;;;;;;;20.83;100.00;100994.66;2072310;28;20272;-73
2023/06/10 04:36:18;;;;;;;12.33;4.70;;;;;;;20.61;100.00;100964.19;2073686;28;20205;-73
2023/06/10 04:37:18;;;;;;;11.40;5.00;;;;;;;20.73;100.00;100984.81;2073200;28;20198;-73
2023/06/10 04:38:19;;;;;;;8.67;4.80;;;;;;;20.76;100.00;100987.41;2073183;28;20198;-73
2023/06/10 04:39:19;;;;;;;10.17;5.13;;;;;;;20.66;100.00;100971.13;2073589;28;20563;-73
2023/06/10 04:40:20;;;;;;;9.17;4.37;;;;;;;20.69;100.00;100989.88;2072842;28;20193;-73
2023/06/10 04:41:22;;;;;;;13.77;4.83;;;;;;;20.45;100.00;100966.78;2073863;28;20209;-73
2023/06/10 04:42:22;;;;;;;8.20;4.53;;;;;;;20.57;100.00;100986.13;2073158;28;20300;-73